sensor_id;sensor_type;location;lat;lon;timestamp;P1;durP1;ratioP1;P2;durP2;ratioP2
6392;SDS011;3229;42.674;23.282;2022-10-30T00:01:26;8.80;;;5.87;;
6392;SDS011;3229;42.674;23.282;2022-10-30T00:03:52;8.60;;;5.70;;
6392;SDS011;3229;42.674;23.282;2022-10-30T00:06:19;9.03;;;5.97;;
6392;SDS011;3229;42.674;23.282;2022-10-30T00:08:46;7.47;;;5.57;;
6392;SDS011;3229;42.674;23.282;2022-10-30T00:11:14;6.97;;;5.27;;
6392;SDS011;3229;42.674;23.282;2022-10-30T00:13:41;6.47;;;5.77;;
6392;SDS011;3229;42.674;23.282;2022-10-30T00:16:09;8.33;;;6.03;;
6392;SDS011;3229;42.674;23.282;2022-10-30T00:18:38;8.63;;;5.87;;
6392;SDS011;3229;42.674;23.282;2022-10-30T00:21:06;7.70;;;6.30;;
6392;SDS011;3229;42.674;23.282;2022-10-30T00:23:34;7.40;;;6.07;;
6392;SDS011;3229;42.674;23.282;2022-10-30T00:26:01;7.60;;;6.03;;
6392;SDS011;3229;42.674;23.282;2022-10-30T00:28:29;6.83;;;5.13;;
6392;SDS011;3229;42.674;23.282;2022-10-30T00:30:57;6.73;;;5.17;;
6392;SDS011;3229;42.674;23.282;2022-10-30T00:33:25;9.00;;;5.40;;
6392;SDS011;3229;42.674;23.282;2022-10-30T00:35:53;9.67;;;6.00;;
6392;SDS011;3229;42.674;23.282;2022-10-30T00:38:20;8.83;;;5.40;;
6392;SDS011;3229;42.674;23.282;2022-10-30T00:40:47;8.50;;;5.93;;
6392;SDS011;3229;42.674;23.282;2022-10-30T00:43:31;6.70;;;4.73;;
6392;SDS011;3229;42.674;23.282;2022-10-30T00:46:01;7.97;;;5.03;;
6392;SDS011;3229;42.674;23.282;2022-10-30T00:48:32;6.37;;;5.37;;
6392;SDS011;3229;42.674;23.282;2022-10-30T00:51:01;9.63;;;6.13;;
6392;SDS011;3229;42.674;23.282;2022-10-30T00:53:33;7.17;;;5.10;;
6392;SDS011;3229;42.674;23.282;2022-10-30T00:56:01;6.00;;;4.53;;
6392;SDS011;3229;42.674;23.282;2022-10-30T00:58:33;7.13;;;5.17;;
6392;SDS011;3229;42.674;23.282;2022-10-30T01:01:06;6.00;;;4.70;;
6392;SDS011;3229;42.674;23.282;2022-10-30T01:03:36;9.93;;;5.63;;
6392;SDS011;3229;42.674;23.282;2022-10-30T01:06:07;8.17;;;5.37;;
6392;SDS011;3229;42.674;23.282;2022-10-30T01:08:37;6.63;;;5.10;;
6392;SDS011;3229;42.674;23.282;2022-10-30T01:11:04;6.80;;;4.97;;
6392;SDS011;3229;42.674;23.282;2022-10-30T01:13:31;5.33;;;4.70;;
6392;SDS011;3229;42.674;23.282;2022-10-30T01:16:07;5.87;;;5.27;;
6392;SDS011;3229;42.674;23.282;2022-10-30T01:18:45;6.27;;;5.30;;
6392;SDS011;3229;42.674;23.282;2022-10-30T01:21:22;6.00;;;4.80;;
6392;SDS011;3229;42.674;23.282;2022-10-30T01:24:06;7.67;;;4.83;;
6392;SDS011;3229;42.674;23.282;2022-10-30T01:26:45;7.27;;;4.50;;
6392;SDS011;3229;42.674;23.282;2022-10-30T01:29:24;8.00;;;4.73;;
6392;SDS011;3229;42.674;23.282;2022-10-30T01:32:04;8.30;;;4.67;;
6392;SDS011;3229;42.674;23.282;2022-10-30T01:34:40;6.23;;;4.70;;
6392;SDS011;3229;42.674;23.282;2022-10-30T01:37:13;6.47;;;4.63;;
6392;SDS011;3229;42.674;23.282;2022-10-30T01:39:45;6.77;;;4.80;;
6392;SDS011;3229;42.674;23.282;2022-10-30T01:45:10;7.13;;;4.47;;
6392;SDS011;3229;42.674;23.282;2022-10-30T01:47:44;5.73;;;4.70;;
6392;SDS011;3229;42.674;23.282;2022-10-30T01:50:24;7.93;;;5.23;;
6392;SDS011;3229;42.674;23.282;2022-10-30T01:53:03;9.90;;;5.23;;
6392;SDS011;3229;42.674;23.282;2022-10-30T01:55:40;6.10;;;5.03;;
6392;SDS011;3229;42.674;23.282;2022-10-30T01:58:17;6.90;;;5.10;;
6392;SDS011;3229;42.674;23.282;2022-10-30T02:00:49;5.87;;;4.67;;
6392;SDS011;3229;42.674;23.282;2022-10-30T02:03:20;10.40;;;5.90;;
6392;SDS011;3229;42.674;23.282;2022-10-30T02:05:47;6.73;;;4.57;;
6392;SDS011;3229;42.674;23.282;2022-10-30T02:08:18;7.77;;;4.70;;
6392;SDS011;3229;42.674;23.282;2022-10-30T02:10:45;7.83;;;5.43;;
6392;SDS011;3229;42.674;23.282;2022-10-30T02:13:15;6.70;;;5.13;;
6392;SDS011;3229;42.674;23.282;2022-10-30T02:15:41;7.80;;;5.03;;
6392;SDS011;3229;42.674;23.282;2022-10-30T02:18:10;7.47;;;5.20;;
6392;SDS011;3229;42.674;23.282;2022-10-30T02:20:38;8.93;;;5.00;;
6392;SDS011;3229;42.674;23.282;2022-10-30T02:23:05;8.10;;;5.37;;
6392;SDS011;3229;42.674;23.282;2022-10-30T02:25:33;5.40;;;4.90;;
6392;SDS011;3229;42.674;23.282;2022-10-30T02:28:00;6.80;;;4.67;;
6392;SDS011;3229;42.674;23.282;2022-10-30T02:30:27;5.77;;;4.53;;
6392;SDS011;3229;42.674;23.282;2022-10-30T02:32:55;6.10;;;4.70;;
6392;SDS011;3229;42.674;23.282;2022-10-30T02:35:22;4.93;;;4.40;;
6392;SDS011;3229;42.674;23.282;2022-10-30T02:37:50;6.43;;;4.73;;
6392;SDS011;3229;42.674;23.282;2022-10-30T02:40:18;5.70;;;4.90;;
6392;SDS011;3229;42.674;23.282;2022-10-30T02:42:49;6.77;;;4.93;;
6392;SDS011;3229;42.674;23.282;2022-10-30T02:45:17;6.67;;;5.10;;
6392;SDS011;3229;42.674;23.282;2022-10-30T02:47:44;8.10;;;4.80;;
6392;SDS011;3229;42.674;23.282;2022-10-30T02:50:12;6.90;;;5.00;;
6392;SDS011;3229;42.674;23.282;2022-10-30T02:52:39;5.90;;;4.60;;
6392;SDS011;3229;42.674;23.282;2022-10-30T02:55:07;5.90;;;5.23;;
6392;SDS011;3229;42.674;23.282;2022-10-30T02:57:35;5.50;;;4.90;;
6392;SDS011;3229;42.674;23.282;2022-10-30T03:00:02;6.17;;;4.90;;
6392;SDS011;3229;42.674;23.282;2022-10-30T03:02:29;6.33;;;5.10;;
6392;SDS011;3229;42.674;23.282;2022-10-30T03:04:56;6.10;;;5.20;;
6392;SDS011;3229;42.674;23.282;2022-10-30T03:07:23;6.87;;;5.30;;
6392;SDS011;3229;42.674;23.282;2022-10-30T03:09:50;5.30;;;4.60;;
6392;SDS011;3229;42.674;23.282;2022-10-30T03:12:19;5.93;;;4.70;;
6392;SDS011;3229;42.674;23.282;2022-10-30T03:14:47;6.83;;;5.00;;
6392;SDS011;3229;42.674;23.282;2022-10-30T03:17:14;7.97;;;4.60;;
6392;SDS011;3229;42.674;23.282;2022-10-30T03:19:40;8.10;;;5.13;;
6392;SDS011;3229;42.674;23.282;2022-10-30T03:22:07;10.80;;;5.20;;
6392;SDS011;3229;42.674;23.282;2022-10-30T03:24:35;8.20;;;5.20;;
6392;SDS011;3229;42.674;23.282;2022-10-30T03:27:02;7.00;;;5.07;;
6392;SDS011;3229;42.674;23.282;2022-10-30T03:29:30;5.90;;;4.80;;
6392;SDS011;3229;42.674;23.282;2022-10-30T03:31:57;7.07;;;4.93;;
6392;SDS011;3229;42.674;23.282;2022-10-30T03:34:24;7.80;;;4.93;;
6392;SDS011;3229;42.674;23.282;2022-10-30T03:36:52;7.47;;;5.40;;
6392;SDS011;3229;42.674;23.282;2022-10-30T03:39:19;8.63;;;5.83;;
6392;SDS011;3229;42.674;23.282;2022-10-30T03:41:46;5.73;;;4.70;;
6392;SDS011;3229;42.674;23.282;2022-10-30T03:44:13;7.27;;;5.03;;
6392;SDS011;3229;42.674;23.282;2022-10-30T03:46:41;5.23;;;4.73;;
6392;SDS011;3229;42.674;23.282;2022-10-30T03:49:08;5.70;;;4.80;;
6392;SDS011;3229;42.674;23.282;2022-10-30T03:51:35;6.60;;;5.17;;
6392;SDS011;3229;42.674;23.282;2022-10-30T03:54:02;5.70;;;4.50;;
6392;SDS011;3229;42.674;23.282;2022-10-30T03:56:29;5.57;;;5.00;;
6392;SDS011;3229;42.674;23.282;2022-10-30T03:58:56;5.93;;;4.67;;
6392;SDS011;3229;42.674;23.282;2022-10-30T04:01:22;7.20;;;5.13;;
6392;SDS011;3229;42.674;23.282;2022-10-30T04:03:51;7.60;;;5.77;;
6392;SDS011;3229;42.674;23.282;2022-10-30T04:06:17;5.67;;;4.93;;
6392;SDS011;3229;42.674;23.282;2022-10-30T04:08:44;7.80;;;5.27;;
6392;SDS011;3229;42.674;23.282;2022-10-30T04:11:11;6.87;;;5.67;;
6392;SDS011;3229;42.674;23.282;2022-10-30T04:13:38;6.53;;;5.33;;
6392;SDS011;3229;42.674;23.282;2022-10-30T04:16:05;7.53;;;5.83;;
6392;SDS011;3229;42.674;23.282;2022-10-30T04:18:32;6.13;;;5.53;;
6392;SDS011;3229;42.674;23.282;2022-10-30T04:21:00;6.67;;;5.43;;
6392;SDS011;3229;42.674;23.282;2022-10-30T04:23:27;8.87;;;5.07;;
6392;SDS011;3229;42.674;23.282;2022-10-30T04:25:54;5.63;;;4.97;;
6392;SDS011;3229;42.674;23.282;2022-10-30T04:28:21;6.57;;;5.40;;
6392;SDS011;3229;42.674;23.282;2022-10-30T04:30:48;5.87;;;4.73;;
6392;SDS011;3229;42.674;23.282;2022-10-30T04:33:15;6.40;;;4.53;;
6392;SDS011;3229;42.674;23.282;2022-10-30T04:35:42;9.77;;;5.83;;
6392;SDS011;3229;42.674;23.282;2022-10-30T04:38:11;8.40;;;5.37;;
6392;SDS011;3229;42.674;23.282;2022-10-30T04:40:39;7.73;;;5.43;;
6392;SDS011;3229;42.674;23.282;2022-10-30T04:43:08;6.57;;;5.33;;
6392;SDS011;3229;42.674;23.282;2022-10-30T04:45:36;5.97;;;5.37;;
6392;SDS011;3229;42.674;23.282;2022-10-30T04:48:04;9.10;;;5.60;;
6392;SDS011;3229;42.674;23.282;2022-10-30T04:50:32;8.13;;;5.80;;
6392;SDS011;3229;42.674;23.282;2022-10-30T04:53:00;7.40;;;5.40;;
6392;SDS011;3229;42.674;23.282;2022-10-30T04:55:29;10.50;;;6.10;;
6392;SDS011;3229;42.674;23.282;2022-10-30T04:57:57;9.73;;;5.63;;
6392;SDS011;3229;42.674;23.282;2022-10-30T05:00:24;6.87;;;5.40;;
6392;SDS011;3229;42.674;23.282;2022-10-30T05:02:52;6.77;;;5.57;;
6392;SDS011;3229;42.674;23.282;2022-10-30T05:05:19;9.83;;;5.87;;
6392;SDS011;3229;42.674;23.282;2022-10-30T05:07:46;7.57;;;6.07;;
6392;SDS011;3229;42.674;23.282;2022-10-30T05:10:13;8.87;;;6.10;;
6392;SDS011;3229;42.674;23.282;2022-10-30T05:12:43;5.87;;;5.23;;
6392;SDS011;3229;42.674;23.282;2022-10-30T05:15:10;6.83;;;5.20;;
6392;SDS011;3229;42.674;23.282;2022-10-30T05:17:38;5.77;;;4.87;;
6392;SDS011;3229;42.674;23.282;2022-10-30T05:20:06;6.20;;;5.60;;
6392;SDS011;3229;42.674;23.282;2022-10-30T05:22:34;6.90;;;6.20;;
6392;SDS011;3229;42.674;23.282;2022-10-30T05:25:00;8.17;;;5.70;;
6392;SDS011;3229;42.674;23.282;2022-10-30T05:27:27;7.43;;;5.90;;
6392;SDS011;3229;42.674;23.282;2022-10-30T05:29:55;6.90;;;5.17;;
6392;SDS011;3229;42.674;23.282;2022-10-30T05:32:22;8.33;;;5.83;;
6392;SDS011;3229;42.674;23.282;2022-10-30T05:34:49;7.53;;;6.57;;
6392;SDS011;3229;42.674;23.282;2022-10-30T05:37:17;7.90;;;6.27;;
6392;SDS011;3229;42.674;23.282;2022-10-30T05:39:44;7.77;;;6.27;;
6392;SDS011;3229;42.674;23.282;2022-10-30T05:42:11;7.90;;;6.17;;
6392;SDS011;3229;42.674;23.282;2022-10-30T05:44:38;8.13;;;6.30;;
6392;SDS011;3229;42.674;23.282;2022-10-30T05:47:06;9.00;;;6.43;;
6392;SDS011;3229;42.674;23.282;2022-10-30T05:49:33;11.80;;;6.47;;
6392;SDS011;3229;42.674;23.282;2022-10-30T05:52:00;10.20;;;6.67;;
6392;SDS011;3229;42.674;23.282;2022-10-30T05:54:26;10.50;;;6.27;;
6392;SDS011;3229;42.674;23.282;2022-10-30T05:56:53;11.60;;;6.67;;
6392;SDS011;3229;42.674;23.282;2022-10-30T05:59:22;10.17;;;6.83;;
6392;SDS011;3229;42.674;23.282;2022-10-30T06:01:48;8.00;;;7.17;;
6392;SDS011;3229;42.674;23.282;2022-10-30T06:04:17;11.23;;;6.77;;
6392;SDS011;3229;42.674;23.282;2022-10-30T06:06:44;8.23;;;6.80;;
6392;SDS011;3229;42.674;23.282;2022-10-30T06:09:11;9.50;;;6.83;;
6392;SDS011;3229;42.674;23.282;2022-10-30T06:11:37;7.63;;;6.87;;
6392;SDS011;3229;42.674;23.282;2022-10-30T06:14:04;7.93;;;6.77;;
6392;SDS011;3229;42.674;23.282;2022-10-30T06:16:31;8.37;;;6.90;;
6392;SDS011;3229;42.674;23.282;2022-10-30T06:18:58;8.00;;;6.33;;
6392;SDS011;3229;42.674;23.282;2022-10-30T06:21:26;7.70;;;6.63;;
6392;SDS011;3229;42.674;23.282;2022-10-30T06:23:55;8.47;;;6.53;;
6392;SDS011;3229;42.674;23.282;2022-10-30T06:26:23;7.80;;;6.53;;
6392;SDS011;3229;42.674;23.282;2022-10-30T06:28:51;9.83;;;6.13;;
6392;SDS011;3229;42.674;23.282;2022-10-30T06:31:21;7.13;;;5.83;;
6392;SDS011;3229;42.674;23.282;2022-10-30T06:33:48;6.70;;;5.67;;
6392;SDS011;3229;42.674;23.282;2022-10-30T06:36:18;11.30;;;6.17;;
6392;SDS011;3229;42.674;23.282;2022-10-30T06:38:46;9.10;;;6.33;;
6392;SDS011;3229;42.674;23.282;2022-10-30T06:41:13;10.03;;;6.10;;
6392;SDS011;3229;42.674;23.282;2022-10-30T06:43:40;9.82;;;6.32;;
6392;SDS011;3229;42.674;23.282;2022-10-30T06:46:07;6.88;;;5.63;;
6392;SDS011;3229;42.674;23.282;2022-10-30T06:48:36;7.93;;;5.55;;
6392;SDS011;3229;42.674;23.282;2022-10-30T06:51:05;10.70;;;6.38;;
6392;SDS011;3229;42.674;23.282;2022-10-30T06:53:31;6.05;;;5.45;;
6392;SDS011;3229;42.674;23.282;2022-10-30T06:56:03;7.40;;;6.00;;
6392;SDS011;3229;42.674;23.282;2022-10-30T06:58:33;6.47;;;5.50;;
6392;SDS011;3229;42.674;23.282;2022-10-30T07:01:03;8.35;;;6.10;;
6392;SDS011;3229;42.674;23.282;2022-10-30T07:03:30;7.93;;;5.78;;
6392;SDS011;3229;42.674;23.282;2022-10-30T07:06:00;8.05;;;5.63;;
6392;SDS011;3229;42.674;23.282;2022-10-30T07:08:27;10.55;;;5.93;;
6392;SDS011;3229;42.674;23.282;2022-10-30T07:10:57;6.72;;;5.32;;
6392;SDS011;3229;42.674;23.282;2022-10-30T07:13:26;7.65;;;5.57;;
6392;SDS011;3229;42.674;23.282;2022-10-30T07:15:55;8.05;;;6.30;;
6392;SDS011;3229;42.674;23.282;2022-10-30T07:18:23;8.30;;;6.03;;
6392;SDS011;3229;42.674;23.282;2022-10-30T07:20:52;9.48;;;5.47;;
6392;SDS011;3229;42.674;23.282;2022-10-30T07:23:21;5.90;;;5.30;;
6392;SDS011;3229;42.674;23.282;2022-10-30T07:25:49;7.15;;;5.82;;
6392;SDS011;3229;42.674;23.282;2022-10-30T07:28:16;7.88;;;5.65;;
6392;SDS011;3229;42.674;23.282;2022-10-30T07:30:44;5.40;;;4.90;;
6392;SDS011;3229;42.674;23.282;2022-10-30T07:33:11;10.20;;;5.25;;
6392;SDS011;3229;42.674;23.282;2022-10-30T07:35:40;7.80;;;5.47;;
6392;SDS011;3229;42.674;23.282;2022-10-30T07:38:09;9.20;;;6.10;;
6392;SDS011;3229;42.674;23.282;2022-10-30T07:40:38;10.95;;;5.15;;
6392;SDS011;3229;42.674;23.282;2022-10-30T07:43:05;8.52;;;5.60;;
6392;SDS011;3229;42.674;23.282;2022-10-30T07:45:34;7.10;;;5.25;;
6392;SDS011;3229;42.674;23.282;2022-10-30T07:48:04;6.13;;;5.53;;
6392;SDS011;3229;42.674;23.282;2022-10-30T07:50:31;6.47;;;5.70;;
6392;SDS011;3229;42.674;23.282;2022-10-30T07:52:58;7.57;;;5.55;;
6392;SDS011;3229;42.674;23.282;2022-10-30T07:55:30;8.02;;;5.20;;
6392;SDS011;3229;42.674;23.282;2022-10-30T07:57:57;7.03;;;5.65;;
6392;SDS011;3229;42.674;23.282;2022-10-30T08:00:27;8.45;;;5.47;;
6392;SDS011;3229;42.674;23.282;2022-10-30T08:02:54;6.38;;;5.18;;
6392;SDS011;3229;42.674;23.282;2022-10-30T08:05:23;8.48;;;6.05;;
6392;SDS011;3229;42.674;23.282;2022-10-30T08:07:51;8.93;;;6.60;;
6392;SDS011;3229;42.674;23.282;2022-10-30T08:10:18;7.70;;;6.05;;
6392;SDS011;3229;42.674;23.282;2022-10-30T08:12:45;6.30;;;5.60;;
6392;SDS011;3229;42.674;23.282;2022-10-30T08:15:13;8.98;;;6.10;;
6392;SDS011;3229;42.674;23.282;2022-10-30T08:17:40;10.00;;;6.50;;
6392;SDS011;3229;42.674;23.282;2022-10-30T08:20:09;10.25;;;6.38;;
6392;SDS011;3229;42.674;23.282;2022-10-30T08:22:45;11.18;;;6.55;;
6392;SDS011;3229;42.674;23.282;2022-10-30T08:25:13;9.77;;;7.25;;
6392;SDS011;3229;42.674;23.282;2022-10-30T08:27:48;8.38;;;6.40;;
6392;SDS011;3229;42.674;23.282;2022-10-30T08:30:16;12.05;;;6.97;;
6392;SDS011;3229;42.674;23.282;2022-10-30T08:32:43;8.88;;;6.35;;
6392;SDS011;3229;42.674;23.282;2022-10-30T08:35:13;11.90;;;7.07;;
6392;SDS011;3229;42.674;23.282;2022-10-30T08:37:44;8.63;;;7.22;;
6392;SDS011;3229;42.674;23.282;2022-10-30T08:40:14;8.13;;;6.22;;
6392;SDS011;3229;42.674;23.282;2022-10-30T08:42:40;10.05;;;6.78;;
6392;SDS011;3229;42.674;23.282;2022-10-30T08:45:15;13.10;;;7.15;;
6392;SDS011;3229;42.674;23.282;2022-10-30T08:47:43;9.20;;;7.32;;
6392;SDS011;3229;42.674;23.282;2022-10-30T08:50:10;11.70;;;6.75;;
6392;SDS011;3229;42.674;23.282;2022-10-30T08:52:37;7.78;;;6.97;;
6392;SDS011;3229;42.674;23.282;2022-10-30T08:55:09;10.23;;;6.47;;
6392;SDS011;3229;42.674;23.282;2022-10-30T08:57:36;9.38;;;7.30;;
6392;SDS011;3229;42.674;23.282;2022-10-30T09:00:06;8.27;;;7.32;;
6392;SDS011;3229;42.674;23.282;2022-10-30T09:02:35;9.38;;;6.85;;
6392;SDS011;3229;42.674;23.282;2022-10-30T09:05:03;8.68;;;7.35;;
6392;SDS011;3229;42.674;23.282;2022-10-30T09:07:31;8.75;;;6.78;;
6392;SDS011;3229;42.674;23.282;2022-10-30T09:10:00;10.65;;;7.00;;
6392;SDS011;3229;42.674;23.282;2022-10-30T09:12:29;13.70;;;7.82;;
6392;SDS011;3229;42.674;23.282;2022-10-30T09:14:56;8.63;;;7.35;;
6392;SDS011;3229;42.674;23.282;2022-10-30T09:17:22;10.43;;;7.28;;
6392;SDS011;3229;42.674;23.282;2022-10-30T09:19:49;7.38;;;6.57;;
6392;SDS011;3229;42.674;23.282;2022-10-30T09:22:16;7.95;;;6.35;;
6392;SDS011;3229;42.674;23.282;2022-10-30T09:24:43;9.18;;;7.15;;
6392;SDS011;3229;42.674;23.282;2022-10-30T09:27:10;7.72;;;6.68;;
6392;SDS011;3229;42.674;23.282;2022-10-30T09:29:38;7.72;;;6.35;;
6392;SDS011;3229;42.674;23.282;2022-10-30T09:32:05;11.63;;;7.20;;
6392;SDS011;3229;42.674;23.282;2022-10-30T09:34:34;8.02;;;6.85;;
6392;SDS011;3229;42.674;23.282;2022-10-30T09:37:01;8.85;;;6.60;;
6392;SDS011;3229;42.674;23.282;2022-10-30T09:39:28;10.07;;;7.20;;
6392;SDS011;3229;42.674;23.282;2022-10-30T09:42:05;12.70;;;7.32;;
6392;SDS011;3229;42.674;23.282;2022-10-30T09:44:47;9.38;;;6.38;;
6392;SDS011;3229;42.674;23.282;2022-10-30T09:47:24;11.35;;;6.57;;
6392;SDS011;3229;42.674;23.282;2022-10-30T09:50:06;7.40;;;6.20;;
6392;SDS011;3229;42.674;23.282;2022-10-30T09:52:52;7.60;;;6.18;;
6392;SDS011;3229;42.674;23.282;2022-10-30T09:55:28;9.10;;;6.38;;
6392;SDS011;3229;42.674;23.282;2022-10-30T09:58:02;10.30;;;6.68;;
6392;SDS011;3229;42.674;23.282;2022-10-30T10:00:43;6.32;;;5.68;;
6392;SDS011;3229;42.674;23.282;2022-10-30T10:03:29;12.38;;;6.13;;
6392;SDS011;3229;42.674;23.282;2022-10-30T10:06:03;9.98;;;6.22;;
6392;SDS011;3229;42.674;23.282;2022-10-30T10:08:36;7.07;;;5.72;;
6392;SDS011;3229;42.674;23.282;2022-10-30T10:11:08;8.00;;;5.93;;
6392;SDS011;3229;42.674;23.282;2022-10-30T10:13:40;9.68;;;5.80;;
6392;SDS011;3229;42.674;23.282;2022-10-30T10:16:15;7.28;;;5.97;;
6392;SDS011;3229;42.674;23.282;2022-10-30T10:18:45;11.45;;;5.93;;
6392;SDS011;3229;42.674;23.282;2022-10-30T10:21:14;7.65;;;5.20;;
6392;SDS011;3229;42.674;23.282;2022-10-30T10:23:49;8.80;;;5.88;;
6392;SDS011;3229;42.674;23.282;2022-10-30T10:26:22;10.02;;;5.82;;
6392;SDS011;3229;42.674;23.282;2022-10-30T10:28:57;7.93;;;5.97;;
6392;SDS011;3229;42.674;23.282;2022-10-30T10:31:38;7.95;;;5.65;;
6392;SDS011;3229;42.674;23.282;2022-10-30T10:34:16;6.63;;;5.55;;
6392;SDS011;3229;42.674;23.282;2022-10-30T10:36:52;7.50;;;5.32;;
6392;SDS011;3229;42.674;23.282;2022-10-30T10:39:38;6.05;;;4.93;;
6392;SDS011;3229;42.674;23.282;2022-10-30T10:42:18;7.00;;;5.43;;
6392;SDS011;3229;42.674;23.282;2022-10-30T10:44:55;10.05;;;5.22;;
6392;SDS011;3229;42.674;23.282;2022-10-30T10:47:51;6.05;;;5.05;;
6392;SDS011;3229;42.674;23.282;2022-10-30T10:50:31;5.43;;;4.93;;
6392;SDS011;3229;42.674;23.282;2022-10-30T10:53:02;5.43;;;4.80;;
6392;SDS011;3229;42.674;23.282;2022-10-30T10:55:32;5.07;;;4.50;;
6392;SDS011;3229;42.674;23.282;2022-10-30T10:58:07;8.63;;;4.95;;
6392;SDS011;3229;42.674;23.282;2022-10-30T11:00:41;5.47;;;4.97;;
6392;SDS011;3229;42.674;23.282;2022-10-30T11:03:10;7.18;;;4.75;;
6392;SDS011;3229;42.674;23.282;2022-10-30T11:05:41;5.90;;;5.05;;
6392;SDS011;3229;42.674;23.282;2022-10-30T11:08:16;7.13;;;4.95;;
6392;SDS011;3229;42.674;23.282;2022-10-30T11:10:45;5.97;;;4.55;;
6392;SDS011;3229;42.674;23.282;2022-10-30T11:13:14;6.38;;;4.75;;
6392;SDS011;3229;42.674;23.282;2022-10-30T11:15:52;6.55;;;4.75;;
6392;SDS011;3229;42.674;23.282;2022-10-30T11:18:27;6.13;;;4.60;;
6392;SDS011;3229;42.674;23.282;2022-10-30T11:20:55;6.07;;;4.60;;
6392;SDS011;3229;42.674;23.282;2022-10-30T11:23:29;6.47;;;4.32;;
6392;SDS011;3229;42.674;23.282;2022-10-30T11:26:03;5.30;;;4.57;;
6392;SDS011;3229;42.674;23.282;2022-10-30T11:28:33;6.30;;;4.53;;
6392;SDS011;3229;42.674;23.282;2022-10-30T11:31:16;6.25;;;3.85;;
6392;SDS011;3229;42.674;23.282;2022-10-30T11:33:46;5.50;;;4.80;;
6392;SDS011;3229;42.674;23.282;2022-10-30T11:36:13;5.18;;;4.63;;
6392;SDS011;3229;42.674;23.282;2022-10-30T11:38:42;8.10;;;4.65;;
6392;SDS011;3229;42.674;23.282;2022-10-30T11:41:09;5.35;;;4.55;;
6392;SDS011;3229;42.674;23.282;2022-10-30T11:43:37;7.97;;;4.70;;
6392;SDS011;3229;42.674;23.282;2022-10-30T11:46:06;4.78;;;4.22;;
6392;SDS011;3229;42.674;23.282;2022-10-30T11:48:37;4.30;;;3.90;;
6392;SDS011;3229;42.674;23.282;2022-10-30T11:51:08;5.32;;;4.50;;
6392;SDS011;3229;42.674;23.282;2022-10-30T11:53:41;5.38;;;4.15;;
6392;SDS011;3229;42.674;23.282;2022-10-30T11:56:14;8.43;;;4.28;;
6392;SDS011;3229;42.674;23.282;2022-10-30T11:58:44;4.05;;;3.65;;
6392;SDS011;3229;42.674;23.282;2022-10-30T12:01:16;4.20;;;3.78;;
6392;SDS011;3229;42.674;23.282;2022-10-30T12:03:47;4.45;;;3.95;;
6392;SDS011;3229;42.674;23.282;2022-10-30T12:06:24;6.65;;;4.28;;
6392;SDS011;3229;42.674;23.282;2022-10-30T12:09:00;4.93;;;3.95;;
6392;SDS011;3229;42.674;23.282;2022-10-30T12:11:30;4.65;;;3.75;;
6392;SDS011;3229;42.674;23.282;2022-10-30T12:13:59;5.88;;;3.92;;
6392;SDS011;3229;42.674;23.282;2022-10-30T12:16:27;5.15;;;3.75;;
6392;SDS011;3229;42.674;23.282;2022-10-30T12:18:56;5.10;;;3.78;;
6392;SDS011;3229;42.674;23.282;2022-10-30T12:21:28;4.30;;;3.88;;
6392;SDS011;3229;42.674;23.282;2022-10-30T12:24:02;7.15;;;3.90;;
6392;SDS011;3229;42.674;23.282;2022-10-30T12:26:33;4.40;;;4.00;;
6392;SDS011;3229;42.674;23.282;2022-10-30T12:29:05;5.03;;;3.72;;
6392;SDS011;3229;42.674;23.282;2022-10-30T12:31:40;5.57;;;4.07;;
6392;SDS011;3229;42.674;23.282;2022-10-30T12:34:16;5.20;;;3.65;;
6392;SDS011;3229;42.674;23.282;2022-10-30T12:37:02;4.13;;;3.70;;
6392;SDS011;3229;42.674;23.282;2022-10-30T12:39:39;4.55;;;3.53;;
6392;SDS011;3229;42.674;23.282;2022-10-30T12:42:22;4.38;;;3.70;;
6392;SDS011;3229;42.674;23.282;2022-10-30T12:44:52;4.30;;;3.88;;
6392;SDS011;3229;42.674;23.282;2022-10-30T12:47:28;4.47;;;3.72;;
6392;SDS011;3229;42.674;23.282;2022-10-30T12:50:05;4.47;;;3.75;;
6392;SDS011;3229;42.674;23.282;2022-10-30T12:52:47;5.32;;;3.88;;
6392;SDS011;3229;42.674;23.282;2022-10-30T12:55:20;5.25;;;3.33;;
6392;SDS011;3229;42.674;23.282;2022-10-30T12:57:52;4.35;;;3.63;;
6392;SDS011;3229;42.674;23.282;2022-10-30T13:00:23;3.85;;;3.55;;
6392;SDS011;3229;42.674;23.282;2022-10-30T13:02:55;6.07;;;3.80;;
6392;SDS011;3229;42.674;23.282;2022-10-30T13:05:28;4.18;;;3.40;;
6392;SDS011;3229;42.674;23.282;2022-10-30T13:08:05;3.95;;;3.33;;
6392;SDS011;3229;42.674;23.282;2022-10-30T13:10:40;4.15;;;3.63;;
6392;SDS011;3229;42.674;23.282;2022-10-30T13:13:12;4.80;;;3.85;;
6392;SDS011;3229;42.674;23.282;2022-10-30T13:15:43;10.95;;;4.07;;
6392;SDS011;3229;42.674;23.282;2022-10-30T13:18:16;3.53;;;3.22;;
6392;SDS011;3229;42.674;23.282;2022-10-30T13:20:48;4.55;;;3.20;;
6392;SDS011;3229;42.674;23.282;2022-10-30T13:23:30;4.88;;;3.25;;
6392;SDS011;3229;42.674;23.282;2022-10-30T13:26:06;3.60;;;3.30;;
6392;SDS011;3229;42.674;23.282;2022-10-30T13:28:40;4.05;;;3.40;;
6392;SDS011;3229;42.674;23.282;2022-10-30T13:31:15;4.10;;;3.35;;
6392;SDS011;3229;42.674;23.282;2022-10-30T13:33:51;4.95;;;3.55;;
6392;SDS011;3229;42.674;23.282;2022-10-30T13:36:27;3.53;;;3.05;;
6392;SDS011;3229;42.674;23.282;2022-10-30T13:39:09;4.03;;;3.20;;
6392;SDS011;3229;42.674;23.282;2022-10-30T13:41:56;4.97;;;3.17;;
6392;SDS011;3229;42.674;23.282;2022-10-30T13:44:38;3.75;;;3.22;;
6392;SDS011;3229;42.674;23.282;2022-10-30T13:47:17;3.80;;;3.03;;
6392;SDS011;3229;42.674;23.282;2022-10-30T13:50:06;4.13;;;3.10;;
6392;SDS011;3229;42.674;23.282;2022-10-30T13:52:44;5.93;;;2.50;;
6392;SDS011;3229;42.674;23.282;2022-10-30T13:55:22;3.58;;;2.78;;
6392;SDS011;3229;42.674;23.282;2022-10-30T13:57:55;3.55;;;2.70;;
6392;SDS011;3229;42.674;23.282;2022-10-30T14:00:29;4.68;;;3.47;;
6392;SDS011;3229;42.674;23.282;2022-10-30T14:03:20;3.88;;;3.20;;
6392;SDS011;3229;42.674;23.282;2022-10-30T14:05:54;3.55;;;2.85;;
6392;SDS011;3229;42.674;23.282;2022-10-30T14:08:29;3.33;;;2.90;;
6392;SDS011;3229;42.674;23.282;2022-10-30T14:11:03;2.53;;;2.38;;
6392;SDS011;3229;42.674;23.282;2022-10-30T14:13:43;3.28;;;2.97;;
6392;SDS011;3229;42.674;23.282;2022-10-30T14:18:58;4.53;;;3.05;;
6392;SDS011;3229;42.674;23.282;2022-10-30T14:24:20;4.18;;;3.25;;
6392;SDS011;3229;42.674;23.282;2022-10-30T14:26:52;4.88;;;3.13;;
6392;SDS011;3229;42.674;23.282;2022-10-30T14:29:41;5.97;;;2.90;;
6392;SDS011;3229;42.674;23.282;2022-10-30T14:43:54;5.95;;;2.92;;
6392;SDS011;3229;42.674;23.282;2022-10-30T14:46:33;3.88;;;2.65;;
6392;SDS011;3229;42.674;23.282;2022-10-30T14:49:14;4.07;;;2.63;;
6392;SDS011;3229;42.674;23.282;2022-10-30T14:52:06;3.03;;;2.72;;
6392;SDS011;3229;42.674;23.282;2022-10-30T14:54:44;5.47;;;3.00;;
6392;SDS011;3229;42.674;23.282;2022-10-30T14:57:20;4.82;;;3.03;;
6392;SDS011;3229;42.674;23.282;2022-10-30T14:59:49;3.65;;;2.92;;
6392;SDS011;3229;42.674;23.282;2022-10-30T15:02:54;4.20;;;2.80;;
6392;SDS011;3229;42.674;23.282;2022-10-30T15:05:38;3.13;;;2.75;;
6392;SDS011;3229;42.674;23.282;2022-10-30T15:08:22;3.28;;;2.67;;
6392;SDS011;3229;42.674;23.282;2022-10-30T15:11:02;4.75;;;2.70;;
6392;SDS011;3229;42.674;23.282;2022-10-30T15:13:47;4.22;;;2.80;;
6392;SDS011;3229;42.674;23.282;2022-10-30T15:16:18;2.58;;;2.38;;
6392;SDS011;3229;42.674;23.282;2022-10-30T15:18:52;3.63;;;2.75;;
6392;SDS011;3229;42.674;23.282;2022-10-30T15:21:25;4.65;;;2.80;;
6392;SDS011;3229;42.674;23.282;2022-10-30T15:23:57;3.88;;;2.50;;
6392;SDS011;3229;42.674;23.282;2022-10-30T15:26:29;5.20;;;3.00;;
6392;SDS011;3229;42.674;23.282;2022-10-30T15:29:00;5.85;;;2.92;;
6392;SDS011;3229;42.674;23.282;2022-10-30T15:31:30;3.90;;;2.65;;
6392;SDS011;3229;42.674;23.282;2022-10-30T15:33:57;6.30;;;3.00;;
6392;SDS011;3229;42.674;23.282;2022-10-30T15:36:27;3.15;;;2.60;;
6392;SDS011;3229;42.674;23.282;2022-10-30T15:39:03;3.03;;;2.63;;
6392;SDS011;3229;42.674;23.282;2022-10-30T15:41:32;4.22;;;3.28;;
6392;SDS011;3229;42.674;23.282;2022-10-30T15:44:03;4.20;;;2.95;;